Time;durP1;ratioP1;P1;durP2;ratioP2;P2;SDS_P1;SDS_P2;PMS_P1;PMS_P2;Temp;Humidity;BMP_temperature;BMP_pressure;BME280_temperature;BME280_humidity;BME280_pressure;Samples;Min_cycle;Max_cycle;Signal;HPM_P1;HPM_P2
2021/09/12 00:01:58;;;;;;;15.20;13.45;;;;;;;21.71;53.67;95637.78;5009277;28;20064;-69
2021/09/12 00:04:23;;;;;;;13.90;12.00;;;;;;;21.69;53.77;95637.34;5010450;28;20026;-69
2021/09/12 00:06:48;;;;;;;13.95;10.15;;;;;;;21.63;53.82;95622.56;5009061;28;20557;-69
2021/09/12 00:09:14;;;;;;;18.30;14.55;;;;;;;21.70;53.61;95639.72;5008849;28;20368;-69
2021/09/12 00:11:40;;;;;;;18.70;14.57;;;;;;;21.54;53.58;95620.09;4990724;28;20042;-69
2021/09/12 00:14:05;;;;;;;17.02;14.10;;;;;;;21.56;53.69;95625.16;5008996;28;20088;-69
2021/09/12 00:16:30;;;;;;;13.73;12.40;;;;;;;21.63;53.67;95631.47;5010863;28;20493;-69
2021/09/12 00:18:56;;;;;;;12.88;11.63;;;;;;;21.52;53.83;95611.56;5008063;28;20038;-69
2021/09/12 00:21:21;;;;;;;17.08;14.02;;;;;;;21.56;53.86;95620.53;5008552;28;20042;-69
2021/09/12 00:23:47;;;;;;;16.50;12.63;;;;;;;21.60;53.83;95634.91;5008708;28;20404;-69
2021/09/12 00:26:12;;;;;;;12.45;11.35;;;;;;;21.50;53.83;95613.88;5009088;28;20042;-70
2021/09/12 00:28:37;;;;;;;13.10;11.85;;;;;;;21.48;53.86;95613.44;5010602;28;20026;-68
2021/09/12 00:31:03;;;;;;;13.57;12.32;;;;;;;21.52;53.82;95608.84;4991136;28;20510;-69
2021/09/12 00:33:31;;;;;;;15.57;13.40;;;;;;;21.50;53.75;95613.88;5008801;28;20046;-69
2021/09/12 00:35:57;;;;;;;21.13;14.80;;;;;;;21.55;53.83;95627.09;4990384;28;20125;-69
2021/09/12 00:38:22;;;;;;;19.67;14.25;;;;;;;21.47;53.77;95609.16;5008717;28;20137;-70
2021/09/12 00:40:47;;;;;;;18.67;15.75;;;;;;;21.48;53.91;95625.03;5010142;28;20026;-69
2021/09/12 00:43:13;;;;;;;22.65;15.82;;;;;;;21.40;53.95;95615.25;5008535;28;20061;-69
2021/09/12 00:45:38;;;;;;;14.90;12.60;;;;;;;21.38;54.17;95612.09;5008754;28;20493;-69
2021/09/12 00:48:04;;;;;;;24.05;17.20;;;;;;;21.36;54.21;95608.22;5008529;28;20064;-69
2021/09/12 00:50:29;;;;;;;22.63;16.25;;;;;;;21.41;53.91;95610.63;5007565;28;20054;-69
2021/09/12 00:53:00;;;;;;;14.15;12.43;;;;;;;21.45;54.05;95623.06;5008423;28;20048;-69
2021/09/12 00:55:26;;;;;;;20.35;15.27;;;;;;;21.48;53.80;95632.38;5010352;28;20033;-69
2021/09/12 00:57:53;;;;;;;18.88;15.55;;;;;;;21.40;53.61;95615.25;5008642;28;20092;-69
2021/09/12 01:00:18;;;;;;;14.32;12.82;;;;;;;21.50;53.73;95616.56;4990548;28;20042;-69
2021/09/12 01:02:43;;;;;;;34.67;19.50;;;;;;;21.51;53.74;95621.63;5008284;28;20144;-68
2021/09/12 01:05:09;;;;;;;13.57;12.23;;;;;;;21.48;53.98;95616.13;5007646;28;20025;-68
2021/09/12 01:07:37;;;;;;;17.80;14.65;;;;;;;21.47;53.96;95612.66;5010252;28;20514;-69
2021/09/12 01:10:03;;;;;;;21.52;16.75;;;;;;;21.57;53.62;95621.31;5007964;28;20129;-69
2021/09/12 01:12:30;;;;;;;13.23;12.02;;;;;;;21.48;53.84;95616.13;5008619;28;20034;-68
2021/09/12 01:14:55;;;;;;;17.85;15.15;;;;;;;21.16;53.51;95562.25;5008437;28;20049;-69
2021/09/12 01:17:30;;;;;;;16.48;14.73;;;;;;;21.45;53.51;95601.41;5008365;28;20049;-69
2021/09/12 01:19:55;;;;;;;24.75;17.70;;;;;;;21.47;53.53;95607.25;5007596;28;20022;-68
2021/09/12 01:22:21;;;;;;;22.77;16.85;;;;;;;21.49;53.51;95604.94;5010763;28;20092;-71
2021/09/12 01:24:47;;;;;;;22.60;15.68;;;;;;;21.38;53.60;95592.38;5012369;28;20030;-69
2021/09/12 01:27:13;;;;;;;28.45;19.02;;;;;;;21.51;53.42;95608.09;5012307;28;20046;-69
2021/09/12 01:29:38;;;;;;;22.50;15.95;;;;;;;21.36;53.64;95590.06;5011900;28;20522;-69
2021/09/12 01:32:04;;;;;;;14.07;12.10;;;;;;;21.45;53.44;95606.84;5011942;28;20471;-68
2021/09/12 01:34:29;;;;;;;17.48;15.02;;;;;;;21.42;53.64;95595.94;4995860;28;20061;-69
2021/09/12 01:36:55;;;;;;;23.65;16.55;;;;;;;21.39;53.61;95593.94;4994343;28;20118;-69
2021/09/12 01:39:20;;;;;;;20.52;15.45;;;;;;;21.34;53.58;95591.53;5011344;28;20057;-69
2021/09/12 01:41:45;;;;;;;21.25;15.90;;;;;;;21.37;53.77;95601.66;5011900;28;20030;-69
2021/09/12 01:44:11;;;;;;;19.75;15.50;;;;;;;21.29;53.80;95593.41;4994149;28;20092;-68
2021/09/12 01:46:38;;;;;;;22.33;17.33;;;;;;;21.31;53.81;95595.78;5013627;28;20022;-69
2021/09/12 01:49:06;;;;;;;16.83;13.75;;;;;;;21.26;53.92;95593.34;5011253;28;20042;-70
2021/09/12 01:51:31;;;;;;;27.05;18.52;;;;;;;21.33;53.69;95598.88;5011188;28;20053;-68
2021/09/12 01:53:57;;;;;;;21.98;16.13;;;;;;;21.31;53.96;95592.28;5011594;28;20042;-69
2021/09/12 01:56:23;;;;;;;13.48;12.18;;;;;;;21.29;53.92;95603.41;5011402;28;20042;-69
2021/09/12 01:58:48;;;;;;;22.90;17.25;;;;;;;21.24;53.93;95590.19;5013148;28;20037;-69
2021/09/12 02:01:13;;;;;;;25.08;16.75;;;;;;;20.90;53.84;95535.94;5011475;28;20041;-69
2021/09/12 02:03:39;;;;;;;15.73;14.13;;;;;;;21.14;53.89;95579.97;5011262;28;20037;-69
2021/09/12 02:06:04;;;;;;;15.90;13.85;;;;;;;21.14;53.89;95585.38;5010729;28;20115;-68
2021/09/12 02:08:30;;;;;;;15.50;13.90;;;;;;;21.16;53.92;95592.00;5011235;28;20038;-68
2021/09/12 02:10:55;;;;;;;28.35;19.10;;;;;;;21.15;53.88;95598.56;5009981;28;20391;-69
2021/09/12 02:13:21;;;;;;;24.75;16.50;;;;;;;21.08;53.86;95584.13;5012413;28;20120;-69
2021/09/12 02:15:46;;;;;;;14.52;13.13;;;;;;;21.15;53.92;95592.38;5011121;28;20038;-69
2021/09/12 02:18:12;;;;;;;31.05;19.08;;;;;;;21.12;54.00;95588.47;5011212;28;20491;-69
2021/09/12 02:20:38;;;;;;;21.80;16.10;;;;;;;20.97;54.03;95571.19;4992386;28;20395;-68
2021/09/12 02:23:05;;;;;;;28.33;19.55;;;;;;;21.07;53.97;95579.84;5010725;28;20061;-68
2021/09/12 02:25:30;;;;;;;31.95;20.25;;;;;;;20.96;54.07;95582.38;5012967;28;20399;-69
2021/09/12 02:27:56;;;;;;;20.45;15.50;;;;;;;21.03;54.09;95590.59;5010916;28;20034;-68
2021/09/12 02:30:21;;;;;;;26.08;18.40;;;;;;;21.01;54.13;95596.38;5010514;28;20042;-70
2021/09/12 02:32:47;;;;;;;17.80;14.00;;;;;;;21.04;54.43;95594.91;5010907;28;20097;-69
2021/09/12 02:35:12;;;;;;;13.57;12.35;;;;;;;21.01;54.59;95595.59;5009280;28;20072;-68
2021/09/12 02:37:37;;;;;;;14.35;12.48;;;;;;;21.08;54.60;95600.34;4994860;28;20018;-69
2021/09/12 02:40:04;;;;;;;13.68;12.27;;;;;;;20.98;54.54;95580.09;5010201;28;20072;-68
2021/09/12 02:42:29;;;;;;;20.08;15.55;;;;;;;21.05;54.41;95596.47;5010497;28;20040;-69
2021/09/12 02:44:56;;;;;;;14.20;12.80;;;;;;;21.05;54.12;95601.88;5010547;28;20046;-69
2021/09/12 02:47:21;;;;;;;13.13;11.82;;;;;;;21.08;54.48;95603.06;5010622;28;20037;-69
2021/09/12 02:49:47;;;;;;;13.95;12.60;;;;;;;21.09;54.31;95593.78;5011637;28;20029;-69
2021/09/12 02:52:12;;;;;;;22.50;15.27;;;;;;;20.96;54.22;95577.75;5010138;28;20062;-69
2021/09/12 02:54:38;;;;;;;23.52;17.20;;;;;;;21.01;54.11;95573.97;4992986;28;20042;-69
2021/09/12 02:57:03;;;;;;;11.63;10.27;;;;;;;21.06;54.13;95584.50;5010484;28;20041;-68
2021/09/12 02:59:29;;;;;;;12.05;10.95;;;;;;;20.97;53.84;95568.50;5010089;28;20073;-69
2021/09/12 03:01:55;;;;;;;11.50;10.35;;;;;;;20.93;53.99;95567.63;5010262;28;20045;-69
2021/09/12 03:04:20;;;;;;;18.75;14.35;;;;;;;21.10;54.11;95587.25;5012435;28;20530;-69
2021/09/12 03:06:45;;;;;;;18.52;14.43;;;;;;;21.15;54.03;95589.66;5009574;28;20034;-68
2021/09/12 03:09:11;;;;;;;18.98;15.70;;;;;;;21.17;53.88;95585.44;5009795;28;20495;-69
2021/09/12 03:11:36;;;;;;;26.65;18.20;;;;;;;21.19;53.87;95601.31;4992693;28;20483;-68
2021/09/12 03:14:02;;;;;;;25.65;17.50;;;;;;;21.21;53.92;95591.72;5010130;28;20018;-68
2021/09/12 03:16:27;;;;;;;15.98;13.80;;;;;;;21.25;53.88;95595.25;5012136;28;20029;-69
2021/09/12 03:18:52;;;;;;;12.95;11.75;;;;;;;21.24;53.87;95593.72;5009759;28;20042;-69
2021/09/12 03:21:19;;;;;;;12.27;10.52;;;;;;;21.32;53.84;95588.44;5009362;28;20508;-70
2021/09/12 03:23:44;;;;;;;12.73;11.52;;;;;;;21.42;53.89;95595.94;5009810;28;20038;-69
2021/09/12 03:26:10;;;;;;;11.10;10.10;;;;;;;21.36;53.89;95592.75;5009902;28;20044;-69
2021/09/12 03:28:35;;;;;;;11.85;10.82;;;;;;;21.51;53.69;95596.47;4993885;28;20092;-68
2021/09/12 03:31:01;;;;;;;11.13;10.00;;;;;;;21.53;53.63;95596.88;5009547;28;20558;-68
2021/09/12 03:33:27;;;;;;;10.23;9.43;;;;;;;21.58;53.64;95584.97;5009573;28;20121;-69
2021/09/12 03:35:52;;;;;;;14.23;12.77;;;;;;;21.69;53.21;95586.69;5009353;28;20534;-69
2021/09/12 03:38:17;;;;;;;14.13;12.65;;;;;;;21.71;53.16;95570.09;5009492;28;20104;-69
2021/09/12 03:40:43;;;;;;;11.25;10.18;;;;;;;21.90;52.91;95577.31;4993493;28;20105;-69
2021/09/12 03:43:09;;;;;;;10.20;9.20;;;;;;;21.85;52.86;95564.88;5009546;28;20487;-69
2021/09/12 03:45:34;;;;;;;9.57;8.77;;;;;;;22.02;52.35;95583.31;5009512;28;20053;-69
2021/09/12 03:48:00;;;;;;;8.82;8.13;;;;;;;22.15;52.71;95580.38;5009561;28;20033;-69
2021/09/12 03:50:26;;;;;;;9.93;8.93;;;;;;;22.22;52.30;95578.56;5008378;28;20046;-69
2021/09/12 03:52:52;;;;;;;7.82;7.18;;;;;;;22.24;51.99;95572.78;5009038;28;20371;-69
2021/09/12 03:55:18;;;;;;;14.63;13.00;;;;;;;22.25;51.76;95560.78;5011161;28;20360;-69
2021/09/12 03:57:43;;;;;;;13.00;11.57;;;;;;;22.36;51.63;95569.03;5009299;28;20040;-70
2021/09/12 04:00:10;;;;;;;10.18;9.25;;;;;;;22.30;51.44;95565.88;5008864;28;20112;-69
2021/09/12 04:02:36;;;;;;;9.52;8.82;;;;;;;22.37;51.61;95567.88;5009076;28;20038;-72
2021/09/12 04:05:02;;;;;;;9.23;7.95;;;;;;;22.35;51.63;95575.59;5008685;28;20029;-69
2021/09/12 04:07:27;;;;;;;8.02;7.40;;;;;;;22.35;51.57;95578.31;5010792;28;20103;-72
2021/09/12 04:09:52;;;;;;;7.78;7.18;;;;;;;22.22;51.59;95575.84;5008596;28;20133;-69
2021/09/12 04:12:18;;;;;;;8.82;8.18;;;;;;;22.15;51.34;95573.03;5008973;28;20034;-69
2021/09/12 04:14:43;;;;;;;7.70;7.13;;;;;;;21.89;52.34;95563.00;5009068;28;20046;-69
2021/09/12 04:17:08;;;;;;;8.02;7.32;;;;;;;21.76;52.48;95562.44;5008939;28;20034;-69
2021/09/12 04:19:34;;;;;;;8.02;7.30;;;;;;;21.75;52.57;95579.03;5010548;28;20018;-69
2021/09/12 04:21:59;;;;;;;11.88;10.88;;;;;;;21.70;52.90;95582.84;5008542;28;20038;-69
2021/09/12 04:24:25;;;;;;;10.80;9.93;;;;;;;21.56;53.02;95558.28;5008954;28;20120;-69
2021/09/12 04:26:51;;;;;;;9.13;8.32;;;;;;;21.62;53.22;95581.19;5009376;28;20566;-70
2021/09/12 04:29:16;;;;;;;10.32;9.43;;;;;;;21.53;52.79;95576.00;5008979;28;20037;-69
2021/09/12 04:31:42;;;;;;;8.57;7.78;;;;;;;21.52;53.17;95581.78;5011169;28;20361;-69
2021/09/12 04:34:07;;;;;;;14.02;11.45;;;;;;;21.41;53.23;95572.72;5009329;28;20040;-69
2021/09/12 04:36:32;;;;;;;9.35;8.65;;;;;;;21.36;53.06;95567.63;5008551;28;20053;-70
2021/09/12 04:38:58;;;;;;;11.48;10.48;;;;;;;21.36;53.21;95581.16;4991183;28;20505;-69
2021/09/12 04:41:23;;;;;;;13.15;11.77;;;;;;;21.22;53.06;95557.31;5009111;28;20108;-70
2021/09/12 04:43:48;;;;;;;12.05;10.82;;;;;;;21.36;53.15;95589.28;5011086;28;20026;-70
2021/09/12 04:46:14;;;;;;;14.57;13.05;;;;;;;21.23;53.14;95578.59;5009021;28;20030;-69
2021/09/12 04:48:39;;;;;;;12.45;11.15;;;;;;;21.19;53.34;95577.78;5008977;28;20042;-70
2021/09/12 04:51:05;;;;;;;13.45;12.02;;;;;;;21.23;53.38;95589.41;5008612;28;20045;-71
2021/09/12 04:53:30;;;;;;;10.88;9.98;;;;;;;21.14;53.55;95580.78;4983355;28;20034;-69
2021/09/12 04:55:56;;;;;;;8.73;8.13;;;;;;;21.08;53.74;95576.78;5008655;28;20482;-70
2021/09/12 04:58:21;;;;;;;10.25;9.35;;;;;;;21.03;53.96;95563.56;5013186;28;20030;-69
2021/09/12 05:00:46;;;;;;;13.95;12.60;;;;;;;21.23;53.47;95575.88;5012808;28;20045;-69
2021/09/12 05:03:12;;;;;;;14.52;13.18;;;;;;;21.08;53.79;95571.38;5012701;28;20606;-69
2021/09/12 05:05:37;;;;;;;8.68;8.05;;;;;;;21.06;53.68;95570.97;5011988;28;20683;-69
2021/09/12 05:08:03;;;;;;;7.20;6.70;;;;;;;21.02;53.64;95562.00;5012435;28;20100;-69
2021/09/12 05:10:28;;;;;;;11.20;10.25;;;;;;;21.09;53.60;95567.56;5013912;28;20022;-69
2021/09/12 05:12:54;;;;;;;12.90;11.63;;;;;;;21.15;53.41;95582.34;5012192;28;20037;-69
2021/09/12 05:15:19;;;;;;;12.95;11.75;;;;;;;21.21;53.37;95585.53;4994648;28;22004;-68
2021/09/12 05:17:44;;;;;;;7.85;7.25;;;;;;;21.15;53.58;95574.22;5012390;28;20065;-70
2021/09/12 05:20:10;;;;;;;10.82;9.93;;;;;;;21.22;53.41;95577.03;5011396;28;20036;-68
2021/09/12 05:22:37;;;;;;;7.55;7.05;;;;;;;21.24;53.40;95573.97;5013642;28;20101;-68
2021/09/12 05:25:03;;;;;;;10.70;9.73;;;;;;;21.36;53.38;95583.88;5012260;28;20037;-68
2021/09/12 05:27:28;;;;;;;12.77;11.63;;;;;;;21.33;53.31;95576.47;5012083;28;20100;-68
2021/09/12 05:29:54;;;;;;;13.27;12.02;;;;;;;21.37;53.49;95588.13;5011648;28;20034;-69
2021/09/12 05:32:19;;;;;;;13.32;12.13;;;;;;;21.38;53.31;95578.84;5012043;28;20062;-68
2021/09/12 05:34:45;;;;;;;7.40;6.90;;;;;;;21.40;53.19;95563.06;5013849;28;20101;-68
2021/09/12 05:37:10;;;;;;;11.48;10.48;;;;;;;21.58;53.58;95588.47;5011133;28;20038;-68
2021/09/12 05:39:36;;;;;;;8.32;7.72;;;;;;;21.65;53.22;95590.47;5011079;28;20069;-68
2021/09/12 05:42:02;;;;;;;7.32;6.70;;;;;;;21.70;53.04;95590.97;5011679;28;20084;-68
2021/09/12 05:44:28;;;;;;;5.88;5.47;;;;;;;21.73;52.89;95587.53;4994203;28;20042;-68
2021/09/12 05:46:53;;;;;;;5.97;5.57;;;;;;;21.82;52.82;95589.22;5011913;28;20030;-69
2021/09/12 05:49:20;;;;;;;8.20;7.55;;;;;;;21.90;52.81;95583.50;5013082;28;20034;-69
2021/09/12 05:51:48;;;;;;;8.20;7.47;;;;;;;22.09;52.50;95595.38;5011090;28;20510;-68
2021/09/12 05:54:13;;;;;;;7.45;6.85;;;;;;;22.09;52.27;95595.38;5011431;28;20058;-68
2021/09/12 05:56:39;;;;;;;6.90;6.30;;;;;;;22.25;52.27;95599.50;5011492;28;20073;-68
2021/09/12 05:59:04;;;;;;;5.38;4.97;;;;;;;22.36;52.17;95606.97;5011181;28;20021;-68
2021/09/12 06:01:30;;;;;;;4.97;4.68;;;;;;;22.37;51.79;95590.38;5013206;28;20022;-68
2021/09/12 06:03:55;;;;;;;6.38;5.95;;;;;;;22.56;51.80;95600.25;5011411;28;20404;-68
2021/09/12 06:06:21;;;;;;;6.88;6.38;;;;;;;22.68;51.72;95608.16;4993371;28;20088;-69
2021/09/12 06:08:46;;;;;;;6.10;5.70;;;;;;;22.70;51.91;95592.28;5009551;28;20125;-68
2021/09/12 06:11:11;;;;;;;4.32;4.03;;;;;;;22.74;51.90;95587.69;4992909;28;20507;-68
2021/09/12 06:13:38;;;;;;;6.38;5.90;;;;;;;22.96;51.45;95596.84;5013368;28;20019;-78
2021/09/12 06:16:05;;;;;;;4.80;4.50;;;;;;;23.04;51.27;95590.34;5011197;28;20045;-71
2021/09/12 06:18:31;;;;;;;7.25;6.75;;;;;;;23.29;51.05;95589.81;5011319;28;20647;-71
2021/09/12 06:20:57;;;;;;;5.80;5.30;;;;;;;23.47;51.25;95606.22;5010630;28;20038;-71
2021/09/12 06:23:22;;;;;;;5.70;5.40;;;;;;;23.23;51.27;95573.06;5010778;28;20038;-70
2021/09/12 06:25:48;;;;;;;5.38;4.97;;;;;;;23.64;50.44;95600.19;4995200;28;20030;-70
2021/09/12 06:28:14;;;;;;;5.55;5.15;;;;;;;23.68;50.77;95611.09;5011350;28;20037;-69
2021/09/12 06:30:39;;;;;;;6.82;6.22;;;;;;;23.58;51.06;95599.72;5010937;28;20132;-70
2021/09/12 06:33:04;;;;;;;7.13;6.63;;;;;;;23.74;50.54;95599.47;5010906;28;20048;-73
2021/09/12 06:35:30;;;;;;;7.32;6.75;;;;;;;23.91;50.62;95617.09;5010454;28;20030;-64
2021/09/12 06:37:55;;;;;;;6.93;6.32;;;;;;;23.99;50.83;95590.72;5011081;28;20033;-68
2021/09/12 06:40:23;;;;;;;7.20;6.60;;;;;;;24.32;50.29;95595.97;5012217;28;20490;-66
2021/09/12 06:42:49;;;;;;;7.20;6.57;;;;;;;24.60;49.67;95599.97;5010696;28;20068;-63
2021/09/12 06:45:15;;;;;;;7.20;6.50;;;;;;;24.89;49.14;95600.88;5010707;28;20064;-64
2021/09/12 06:47:40;;;;;;;7.63;7.03;;;;;;;25.33;48.39;95602.50;5010465;28;20069;-64
2021/09/12 06:50:06;;;;;;;7.80;7.20;;;;;;;25.39;48.21;95596.31;5010064;28;20447;-63
2021/09/12 06:52:32;;;;;;;9.05;8.00;;;;;;;25.56;47.98;95594.75;5011864;28;20080;-64
2021/09/12 06:54:57;;;;;;;9.90;9.10;;;;;;;25.86;47.42;95610.72;5010486;28;20068;-64
2021/09/12 06:57:23;;;;;;;9.13;8.38;;;;;;;25.68;47.37;95597.06;5010552;28;20061;-64
2021/09/12 06:59:48;;;;;;;10.30;9.45;;;;;;;24.89;48.93;95606.31;4992310;28;20053;-64
2021/09/12 07:02:14;;;;;;;9.48;8.75;;;;;;;25.10;48.32;95592.75;5010326;28;20038;-64
2021/09/12 07:04:39;;;;;;;10.93;9.93;;;;;;;25.50;48.26;95600.97;4994815;28;20022;-64
2021/09/12 07:07:04;;;;;;;9.90;9.05;;;;;;;24.96;48.75;95605.53;5009749;28;20053;-66
2021/09/12 07:09:30;;;;;;;9.75;8.85;;;;;;;25.34;48.27;95598.63;4991764;28;20052;-64
2021/09/12 07:11:55;;;;;;;9.98;9.18;;;;;;;25.16;48.65;95606.78;5009988;28;20399;-65
2021/09/12 07:14:21;;;;;;;8.77;8.07;;;;;;;24.78;49.52;95589.19;5010394;28;20042;-64
2021/09/12 07:16:46;;;;;;;10.02;9.00;;;;;;;25.18;49.11;95615.31;5012023;28;20030;-65
2021/09/12 07:19:11;;;;;;;9.75;8.95;;;;;;;25.36;48.69;95604.47;5009643;28;20034;-64
2021/09/12 07:21:37;;;;;;;9.70;9.00;;;;;;;25.55;48.45;95614.22;5008979;28;20045;-65
2021/09/12 07:24:03;;;;;;;8.98;8.18;;;;;;;25.67;48.30;95611.84;5009645;28;20514;-65
2021/09/12 07:26:28;;;;;;;8.48;7.88;;;;;;;25.66;48.18;95613.03;5009944;28;20041;-64
2021/09/12 07:28:54;;;;;;;8.60;7.88;;;;;;;25.20;48.39;95617.66;4991722;28;20037;-64
2021/09/12 07:31:19;;;;;;;9.95;9.00;;;;;;;25.26;48.47;95611.44;4994077;28;20032;-70
2021/09/12 07:33:44;;;;;;;9.10;8.23;;;;;;;25.30;49.00;95612.25;5009826;28;20030;-66
2021/09/12 07:36:10;;;;;;;9.10;8.45;;;;;;;25.46;48.38;95600.19;5008734;28;20041;-67
2021/09/12 07:38:35;;;;;;;9.13;8.27;;;;;;;25.66;47.99;95613.03;4991599;28;20484;-67
2021/09/12 07:41:00;;;;;;;8.70;7.85;;;;;;;25.37;48.27;95620.41;5009459;28;20117;-68
2021/09/12 07:43:26;;;;;;;7.95;7.35;;;;;;;25.66;47.75;95604.09;4993747;28;20049;-69
2021/09/12 07:45:51;;;;;;;7.40;6.90;;;;;;;25.93;47.99;95599.78;5009534;28;20096;-68
2021/09/12 07:48:17;;;;;;;8.07;7.47;;;;;;;26.15;47.46;95597.78;4991411;28;20374;-67
2021/09/12 07:50:43;;;;;;;8.90;8.23;;;;;;;26.38;47.23;95599.31;4991037;28;20407;-68
2021/09/12 07:53:09;;;;;;;7.28;6.20;;;;;;;26.30;47.10;95601.25;4991025;28;20029;-66
2021/09/12 07:55:34;;;;;;;7.97;7.10;;;;;;;25.77;47.74;95606.81;5011355;28;20430;-67
2021/09/12 07:57:59;;;;;;;7.55;6.95;;;;;;;26.30;46.70;95614.91;5009437;28;20038;-70
2021/09/12 08:00:25;;;;;;;6.38;5.80;;;;;;;26.41;46.05;95612.13;5008949;28;20427;-69
2021/09/12 08:02:50;;;;;;;7.90;7.30;;;;;;;26.74;45.57;95618.28;5009343;28;20053;-69
2021/09/12 08:05:15;;;;;;;7.85;7.22;;;;;;;27.13;45.24;95618.13;5009321;28;20038;-70
2021/09/12 08:07:41;;;;;;;6.95;6.35;;;;;;;27.09;44.83;95606.44;5010266;28;20029;-70
2021/09/12 08:10:07;;;;;;;7.78;7.10;;;;;;;27.70;44.24;95615.78;5008564;28;20519;-69
2021/09/12 08:12:32;;;;;;;6.10;5.60;;;;;;;28.11;42.86;95628.69;5009176;28;20029;-70
2021/09/12 08:14:57;;;;;;;6.07;5.68;;;;;;;28.50;42.78;95622.81;4991427;28;20695;-71
2021/09/12 08:17:23;;;;;;;6.95;6.38;;;;;;;28.85;41.48;95620.84;5009046;28;20038;-71
2021/09/12 08:19:48;;;;;;;7.20;6.60;;;;;;;29.25;40.86;95630.13;5010550;28;20117;-73
2021/09/12 08:22:14;;;;;;;6.38;5.88;;;;;;;29.41;39.64;95621.28;5008054;28;20415;-70
2021/09/12 08:24:39;;;;;;;7.85;7.30;;;;;;;29.53;39.22;95619.91;5008767;28;20034;-64
2021/09/12 08:27:04;;;;;;;7.25;6.63;;;;;;;29.70;39.16;95620.88;5009294;28;20049;-68
2021/09/12 08:29:30;;;;;;;7.07;6.57;;;;;;;29.85;38.68;95626.91;5008557;28;20034;-65
2021/09/12 08:31:55;;;;;;;8.00;7.40;;;;;;;30.03;38.61;95636.34;4990420;28;20053;-66
2021/09/12 08:34:23;;;;;;;8.52;7.82;;;;;;;30.01;37.63;95621.53;4993111;28;20018;-70
2021/09/12 08:36:49;;;;;;;8.60;6.60;;;;;;;30.19;37.30;95611.00;5008325;28;20039;-68
2021/09/12 08:39:14;;;;;;;7.10;6.55;;;;;;;30.46;37.58;95619.16;5008191;28;20574;-65
2021/09/12 08:41:39;;;;;;;7.22;6.72;;;;;;;30.74;36.54;95622.56;5008367;28;20034;-65
2021/09/12 08:44:06;;;;;;;6.82;6.32;;;;;;;30.84;36.12;95627.06;4990970;28;20072;-65
2021/09/12 08:46:32;;;;;;;6.00;5.60;;;;;;;31.02;35.69;95619.22;5010530;28;20104;-71
2021/09/12 08:48:57;;;;;;;6.43;5.93;;;;;;;31.01;35.68;95614.91;5008378;28;20038;-69
2021/09/12 08:51:24;;;;;;;6.72;6.22;;;;;;;30.98;35.83;95624.00;5008223;28;20503;-68
2021/09/12 08:53:49;;;;;;;6.38;5.53;;;;;;;30.84;36.12;95620.78;5008336;28;20037;-70
2021/09/12 08:56:15;;;;;;;5.38;5.07;;;;;;;30.69;35.92;95626.53;5008573;28;20034;-78
2021/09/12 08:58:40;;;;;;;6.25;5.75;;;;;;;30.70;36.32;95625.38;4992486;28;20494;-71
2021/09/12 09:01:06;;;;;;;5.10;4.78;;;;;;;30.63;36.40;95624.72;5008528;28;20042;-64
2021/09/12 09:03:41;;;;;;;6.35;5.95;;;;;;;29.43;38.23;95631.81;5009005;28;20038;-73
2021/09/12 09:06:18;;;;;;;6.75;6.25;;;;;;;29.45;38.49;95630.22;5008632;28;20042;-71
2021/09/12 09:08:59;;;;;;;6.45;6.05;;;;;;;29.86;37.95;95628.44;5006072;28;20038;-71
2021/09/12 09:11:33;;;;;;;6.68;6.18;;;;;;;29.51;37.99;95623.06;5020392;28;20080;-71
2021/09/12 09:14:18;;;;;;;6.57;6.00;;;;;;;29.88;37.64;95621.34;5019587;28;20028;-68
2021/09/12 09:16:46;;;;;;;6.07;5.30;;;;;;;30.23;37.40;95627.44;5011003;28;20096;-73
2021/09/12 09:19:12;;;;;;;6.03;5.53;;;;;;;30.37;36.88;95623.66;5008603;28;20120;-70
2021/09/12 09:21:40;;;;;;;6.43;5.88;;;;;;;30.49;36.64;95614.78;5008104;28;20130;-75
2021/09/12 09:24:17;;;;;;;6.43;5.93;;;;;;;30.75;36.61;95624.09;5009259;28;20042;-79
2021/09/12 09:26:58;;;;;;;6.55;6.05;;;;;;;30.86;36.53;95623.88;5009624;28;20045;-85
2021/09/12 09:29:31;;;;;;;6.43;5.93;;;;;;;30.91;36.21;95626.13;5008286;28;20092;-71
2021/09/12 09:32:11;;;;;;;6.47;5.97;;;;;;;31.11;35.43;95620.59;5009056;28;20056;-70
2021/09/12 09:34:39;;;;;;;6.25;5.85;;;;;;;31.20;35.46;95612.56;4992640;28;20014;-69
2021/09/12 09:37:21;;;;;;;7.32;6.68;;;;;;;30.68;35.32;95616.75;5008012;28;20045;-70
2021/09/12 09:39:52;;;;;;;5.97;5.50;;;;;;;30.74;35.58;95617.06;5007886;28;20068;-70
2021/09/12 09:42:32;;;;;;;6.93;6.38;;;;;;;30.61;35.69;95605.94;5008399;28;20534;-70
2021/09/12 09:45:19;;;;;;;5.90;5.50;;;;;;;30.60;35.91;95609.84;5011250;28;20045;-70
2021/09/12 09:47:47;;;;;;;5.90;5.50;;;;;;;30.35;36.03;95601.31;5012263;28;20040;-80
2021/09/12 09:50:15;;;;;;;5.95;5.55;;;;;;;30.50;36.23;95608.84;5011720;28;20463;-72
2021/09/12 09:52:43;;;;;;;5.80;5.30;;;;;;;30.42;35.35;95601.19;5013100;28;20025;-72
2021/09/12 09:55:10;;;;;;;6.65;6.07;;;;;;;30.69;35.32;95604.56;4994038;28;20065;-71
2021/09/12 09:57:36;;;;;;;4.85;4.45;;;;;;;30.86;34.96;95602.66;5011781;28;20057;-72
2021/09/12 10:00:04;;;;;;;5.00;4.47;;;;;;;31.06;34.37;95600.66;5011051;28;20049;-72
2021/09/12 10:02:32;;;;;;;4.72;4.22;;;;;;;31.42;34.13;95596.38;5011597;28;20044;-72
2021/09/12 10:04:59;;;;;;;4.07;3.78;;;;;;;31.45;32.31;95593.53;5011557;28;20036;-72
2021/09/12 10:07:25;;;;;;;5.25;4.85;;;;;;;31.38;33.05;95582.72;5012743;28;20033;-72
2021/09/12 10:09:51;;;;;;;5.25;4.85;;;;;;;29.29;35.99;95596.44;5010985;28;20061;-72
2021/09/12 10:12:16;;;;;;;4.35;3.95;;;;;;;30.93;34.06;95588.81;5011366;28;20467;-73
2021/09/12 10:14:57;;;;;;;4.18;3.88;;;;;;;31.61;32.81;95583.75;5011585;28;20396;-72
2021/09/12 10:17:27;;;;;;;5.27;4.87;;;;;;;31.72;33.70;95576.78;4993633;28;20145;-70
2021/09/12 10:20:08;;;;;;;4.10;3.80;;;;;;;30.77;35.31;95584.03;5010946;28;20037;-71
2021/09/12 10:22:51;;;;;;;4.55;4.25;;;;;;;29.06;37.73;95588.91;5012089;28;20121;-73
2021/09/12 10:25:17;;;;;;;5.00;4.60;;;;;;;28.36;39.48;95590.19;5010924;28;20516;-72
2021/09/12 10:27:45;;;;;;;4.28;3.97;;;;;;;28.48;39.15;95567.75;4993543;28;20034;-72
2021/09/12 10:30:21;;;;;;;4.00;3.58;;;;;;;26.83;42.95;95583.16;5010629;28;20029;-73
2021/09/12 10:32:47;;;;;;;4.32;3.75;;;;;;;27.86;42.23;95568.78;4993099;28;20050;-72
2021/09/12 10:35:18;;;;;;;4.30;3.92;;;;;;;28.85;39.90;95568.06;5011055;28;20046;-67
2021/09/12 10:38:00;;;;;;;4.65;4.35;;;;;;;29.92;36.96;95558.97;4994782;28;20029;-69
2021/09/12 10:40:49;;;;;;;4.93;4.53;;;;;;;28.25;40.18;95570.31;5010699;28;20065;-71
2021/09/12 10:43:27;;;;;;;4.28;4.03;;;;;;;27.68;40.72;95565.41;5001205;28;20522;-74
2021/09/12 10:46:01;;;;;;;4.47;4.07;;;;;;;27.35;42.34;95567.63;5010818;28;20491;-70
2021/09/12 10:48:36;;;;;;;4.75;4.35;;;;;;;27.30;41.99;95559.09;5010529;28;20066;-67
2021/09/12 10:51:04;;;;;;;4.65;4.10;;;;;;;26.67;42.93;95559.84;4992735;28;20049;-67
2021/09/12 10:53:47;;;;;;;4.00;3.80;;;;;;;26.65;44.08;95564.13;5009723;28;20077;-66
2021/09/12 10:56:29;;;;;;;4.32;4.03;;;;;;;26.90;43.08;95556.59;5009745;28;20049;-69
2021/09/12 10:59:11;;;;;;;4.38;4.07;;;;;;;26.61;44.04;95558.69;4992333;28;20120;-70
2021/09/12 11:01:40;;;;;;;4.72;4.22;;;;;;;26.78;42.89;95559.78;5012344;28;20030;-71
2021/09/12 11:04:07;;;;;;;3.80;3.50;;;;;;;27.85;41.37;95561.78;5010219;28;20046;-68
2021/09/12 11:06:35;;;;;;;5.03;4.63;;;;;;;27.64;40.12;95557.25;5010098;28;20040;-67
2021/09/12 11:09:03;;;;;;;3.63;3.40;;;;;;;28.40;39.41;95566.25;4991528;28;20034;-68
2021/09/12 11:11:29;;;;;;;4.60;4.25;;;;;;;28.81;37.92;95545.41;5009789;28;20029;-68
2021/09/12 11:13:57;;;;;;;5.05;4.68;;;;;;;29.29;36.92;95536.16;5009908;28;20482;-68
2021/09/12 11:16:23;;;;;;;4.00;3.78;;;;;;;30.04;35.72;95555.59;5011833;28;20034;-68
2021/09/12 11:18:59;;;;;;;4.50;4.10;;;;;;;30.61;35.18;95553.75;5009442;28;20069;-68
2021/09/12 11:21:38;;;;;;;4.35;3.55;;;;;;;31.33;34.21;95550.25;5010147;28;20522;-68
2021/09/12 11:24:14;;;;;;;4.00;3.70;;;;;;;31.80;32.47;95547.13;4991674;28;20042;-68
2021/09/12 11:26:55;;;;;;;3.42;3.22;;;;;;;31.67;32.06;95540.78;5010038;28;20034;-80